createdAt,value
2018-08-12T00:01:34.522Z,26.70
2018-08-12T00:04:07.428Z,26.80
2018-08-12T00:06:39.516Z,26.80
2018-08-12T00:09:12.964Z,26.40
2018-08-12T00:11:45.100Z,26.50
2018-08-12T00:14:17.366Z,26.60
2018-08-12T00:16:49.770Z,26.30
2018-08-12T00:19:21.896Z,26.00
2018-08-12T00:21:54.241Z,26.10
2018-08-12T00:24:26.679Z,26.10
2018-08-12T00:26:58.970Z,26.10
2018-08-12T00:29:31.995Z,26.00
2018-08-12T00:32:04.376Z,25.80
2018-08-12T00:34:36.554Z,25.80
2018-08-12T00:37:09.894Z,25.70
2018-08-12T00:39:42.024Z,25.80
2018-08-12T00:42:14.401Z,25.80
2018-08-12T00:44:46.424Z,25.80
2018-08-12T00:47:18.568Z,25.50
2018-08-12T00:49:50.724Z,25.60
2018-08-12T00:52:23.077Z,25.50
2018-08-12T00:54:55.333Z,25.50
2018-08-12T00:57:27.536Z,25.50
2018-08-12T00:59:59.903Z,25.60
2018-08-12T01:02:32.052Z,25.40
2018-08-12T01:05:05.055Z,25.50
2018-08-12T01:07:37.389Z,25.50
2018-08-12T01:10:10.460Z,25.70
2018-08-12T01:12:42.810Z,25.20
2018-08-12T01:15:17.806Z,25.30
2018-08-12T01:17:50.045Z,25.40
2018-08-12T01:20:25.479Z,25.30
2018-08-12T01:22:57.923Z,25.40
2018-08-12T01:25:30.123Z,25.50
2018-08-12T01:28:02.465Z,25.50
2018-08-12T01:30:34.571Z,25.60
2018-08-12T01:33:06.863Z,25.70
2018-08-12T01:35:39.003Z,25.90
2018-08-12T01:38:11.148Z,25.80
2018-08-12T01:40:43.479Z,25.70
2018-08-12T01:43:15.785Z,25.80
2018-08-12T01:45:48.022Z,25.80
2018-08-12T01:48:20.159Z,25.60
2018-08-12T01:50:52.487Z,25.60
2018-08-12T01:53:24.838Z,25.50
2018-08-12T01:55:56.770Z,25.70
2018-08-12T01:58:28.802Z,25.60
2018-08-12T02:01:01.057Z,25.60
2018-08-12T02:03:33.426Z,25.50
2018-08-12T02:06:06.269Z,25.40
2018-08-12T02:08:43.111Z,25.40
2018-08-12T02:11:15.333Z,25.30
2018-08-12T02:13:47.612Z,25.30
2018-08-12T02:16:19.871Z,25.20
2018-08-12T02:18:51.788Z,25.10
2018-08-12T02:21:24.001Z,25.20
2018-08-12T02:23:56.219Z,25.10
2018-08-12T02:26:28.331Z,25.00
2018-08-12T02:29:00.482Z,25.00
2018-08-12T02:31:32.514Z,25.10
2018-08-12T02:34:04.397Z,25.00
2018-08-12T02:36:36.736Z,25.10
2018-08-12T02:39:12.539Z,25.00
2018-08-12T02:41:44.730Z,24.90
2018-08-12T02:44:16.959Z,24.90
2018-08-12T02:46:49.082Z,24.80
2018-08-12T02:49:21.233Z,24.80
2018-08-12T02:51:53.430Z,24.80
2018-08-12T02:54:25.772Z,24.60
2018-08-12T02:56:57.693Z,24.60
2018-08-12T02:59:29.842Z,24.50
2018-08-12T03:02:01.975Z,24.60
2018-08-12T03:04:34.222Z,24.30
2018-08-12T03:07:06.986Z,24.20
2018-08-12T03:09:39.374Z,24.30
2018-08-12T03:12:11.542Z,24.30
2018-08-12T03:14:43.718Z,24.40
2018-08-12T03:17:15.878Z,24.40
2018-08-12T03:19:48.272Z,24.40
2018-08-12T03:22:20.598Z,24.40
2018-08-12T03:24:52.867Z,24.20
2018-08-12T03:27:25.001Z,24.00
2018-08-12T03:29:57.184Z,23.90
2018-08-12T03:32:29.173Z,23.80
2018-08-12T03:35:01.296Z,24.00
2018-08-12T03:37:33.567Z,24.00
2018-08-12T03:40:06.282Z,24.00
2018-08-12T03:42:38.550Z,23.90
2018-08-12T03:45:11.557Z,23.90
2018-08-12T03:47:43.580Z,23.90
2018-08-12T03:50:15.541Z,24.00
2018-08-12T03:52:47.516Z,23.70
2018-08-12T03:55:19.659Z,23.60
2018-08-12T03:57:51.785Z,23.60
2018-08-12T04:00:24.093Z,23.40
2018-08-12T04:02:56.340Z,23.30
2018-08-12T04:05:28.784Z,23.50
2018-08-12T04:08:01.197Z,23.50
2018-08-12T04:10:33.457Z,23.50
2018-08-12T04:13:05.689Z,23.60
2018-08-12T04:15:37.880Z,23.60
2018-08-12T04:18:10.524Z,23.60
2018-08-12T04:20:42.916Z,23.60
2018-08-12T04:23:15.030Z,23.60
2018-08-12T04:25:47.494Z,23.60
2018-08-12T04:28:20.018Z,23.60
2018-08-12T04:30:52.422Z,23.70
2018-08-12T04:33:24.730Z,23.60
2018-08-12T04:35:57.129Z,23.70
2018-08-12T04:38:29.226Z,23.60
2018-08-12T04:41:01.454Z,23.60
2018-08-12T04:43:34.001Z,23.60
2018-08-12T04:46:06.261Z,23.60
2018-08-12T04:48:38.404Z,23.60
2018-08-12T04:51:10.869Z,23.50
2018-08-12T04:53:42.902Z,23.50
2018-08-12T04:56:15.435Z,23.40
2018-08-12T04:58:47.489Z,23.50
2018-08-12T05:01:19.922Z,23.50
2018-08-12T05:03:52.335Z,23.40
2018-08-12T05:06:24.606Z,23.40
2018-08-12T05:08:56.992Z,23.30
2018-08-12T05:11:29.303Z,23.30
2018-08-12T05:14:01.228Z,23.20
2018-08-12T05:16:33.373Z,23.30
2018-08-12T05:19:05.575Z,23.30
2018-08-12T05:21:37.757Z,23.30
2018-08-12T05:24:09.967Z,23.10
2018-08-12T05:26:42.444Z,23.20
2018-08-12T05:29:14.416Z,23.10
2018-08-12T05:31:46.759Z,23.20
2018-08-12T05:34:18.965Z,23.00
2018-08-12T05:36:51.167Z,22.90
2018-08-12T05:39:23.766Z,22.80
2018-08-12T05:41:55.785Z,22.70
2018-08-12T05:44:27.970Z,22.80
2018-08-12T05:47:00.090Z,22.90
2018-08-12T05:49:32.492Z,22.90
2018-08-12T05:52:04.948Z,22.60
2018-08-12T05:54:37.008Z,22.30
2018-08-12T05:57:09.213Z,22.10
2018-08-12T05:59:41.167Z,22.10
2018-08-12T06:02:13.903Z,22.30
2018-08-12T06:04:46.165Z,22.50
2018-08-12T06:07:18.599Z,22.60
2018-08-12T06:09:50.665Z,22.50
2018-08-12T06:12:23.320Z,22.40
2018-08-12T06:14:55.376Z,22.30
2018-08-12T06:17:27.450Z,22.20
2018-08-12T06:19:59.570Z,22.20
2018-08-12T06:22:31.581Z,22.30
2018-08-12T06:25:04.082Z,22.20
2018-08-12T06:27:36.537Z,22.10
2018-08-12T06:30:12.556Z,21.90
2018-08-12T06:32:44.830Z,21.90
2018-08-12T06:35:17.006Z,21.90
2018-08-12T06:37:48.945Z,21.90
2018-08-12T06:40:21.815Z,22.00
2018-08-12T06:42:54.112Z,22.00
2018-08-12T06:45:26.060Z,22.10
2018-08-12T06:47:58.342Z,22.10
2018-08-12T06:50:30.733Z,22.10
2018-08-12T06:53:02.863Z,22.10
2018-08-12T06:55:35.301Z,22.00
2018-08-12T06:58:07.700Z,21.80
2018-08-12T07:00:39.809Z,21.80
2018-08-12T07:03:12.088Z,22.00
2018-08-12T07:05:44.405Z,21.90
2018-08-12T07:08:16.691Z,21.90
2018-08-12T07:10:49.006Z,21.80
2018-08-12T07:13:21.092Z,21.90
2018-08-12T07:15:53.970Z,21.90
2018-08-12T07:18:26.183Z,22.10
2018-08-12T07:20:58.244Z,22.10
2018-08-12T07:23:30.416Z,22.20
2018-08-12T07:26:02.674Z,22.10
2018-08-12T07:28:35.100Z,22.20
2018-08-12T07:31:07.510Z,22.30
2018-08-12T07:33:39.567Z,22.20
2018-08-12T07:36:12.014Z,22.30
2018-08-12T07:38:44.274Z,22.40
2018-08-12T07:41:16.761Z,22.30
2018-08-12T07:43:48.735Z,22.30
2018-08-12T07:46:21.361Z,22.30
2018-08-12T07:48:53.471Z,22.30
2018-08-12T07:51:25.645Z,22.30
2018-08-12T07:53:57.741Z,22.30
2018-08-12T07:56:29.908Z,22.20
2018-08-12T07:59:01.978Z,22.20
2018-08-12T08:01:34.225Z,22.20
2018-08-12T08:04:06.452Z,21.90
2018-08-12T08:06:38.457Z,21.90
2018-08-12T08:09:13.363Z,21.70
2018-08-12T08:11:45.486Z,21.70
2018-08-12T08:14:17.736Z,21.90
2018-08-12T08:16:49.899Z,22.00
2018-08-12T08:19:22.001Z,21.90
2018-08-12T08:21:54.151Z,21.90
2018-08-12T08:24:26.242Z,22.00
2018-08-12T08:26:58.608Z,22.00
2018-08-12T08:29:30.996Z,21.90
2018-08-12T08:32:03.317Z,21.70
2018-08-12T08:34:35.649Z,21.70
2018-08-12T08:37:08.033Z,21.90
2018-08-12T08:39:40.663Z,21.90
2018-08-12T08:42:12.668Z,22.00
2018-08-12T08:44:44.835Z,22.10
2018-08-12T08:47:17.155Z,22.10
2018-08-12T08:49:49.335Z,21.90
2018-08-12T08:52:21.535Z,21.80
2018-08-12T08:54:53.664Z,21.60
2018-08-12T08:57:25.912Z,21.60
2018-08-12T08:59:58.108Z,21.60
2018-08-12T09:02:30.578Z,21.70
2018-08-12T09:05:02.893Z,21.70
2018-08-12T09:07:35.376Z,21.70
2018-08-12T09:10:13.465Z,21.70
2018-08-12T09:12:47.138Z,21.70
2018-08-12T09:15:21.176Z,21.60
2018-08-12T09:17:53.421Z,21.40
2018-08-12T09:20:25.718Z,21.70
2018-08-12T09:22:57.932Z,21.70
2018-08-12T09:25:30.372Z,21.60
2018-08-12T09:28:02.646Z,21.30
2018-08-12T09:30:34.934Z,21.20
2018-08-12T09:33:07.236Z,21.30
2018-08-12T09:35:39.238Z,21.40
2018-08-12T09:38:11.474Z,21.60
2018-08-12T09:40:43.763Z,21.70
2018-08-12T09:43:16.056Z,21.50
2018-08-12T09:45:48.187Z,21.40
2018-08-12T09:48:20.584Z,21.30
2018-08-12T09:50:52.963Z,21.20
2018-08-12T09:53:24.888Z,21.10
2018-08-12T09:55:57.124Z,21.30
2018-08-12T09:58:29.219Z,21.40
2018-08-12T10:01:01.476Z,21.50
2018-08-12T10:03:34.046Z,21.50
2018-08-12T10:06:06.252Z,21.50
2018-08-12T10:08:38.411Z,21.50
2018-08-12T10:11:10.884Z,21.50
2018-08-12T10:13:43.056Z,21.50
2018-08-12T10:16:15.485Z,21.50
2018-08-12T10:18:48.174Z,21.50
2018-08-12T10:21:20.547Z,21.60
2018-08-12T10:23:53.016Z,21.60
2018-08-12T10:26:25.340Z,21.60
2018-08-12T10:28:57.427Z,21.70
2018-08-12T10:31:31.225Z,21.20
2018-08-12T10:34:03.383Z,20.80
2018-08-12T10:36:35.594Z,20.80
2018-08-12T10:39:09.477Z,20.70
2018-08-12T10:41:41.847Z,20.60
2018-08-12T10:44:13.987Z,20.70
2018-08-12T10:46:46.357Z,20.60
2018-08-12T10:49:18.491Z,20.60
2018-08-12T10:51:51.967Z,20.70
2018-08-12T10:54:24.286Z,20.60
2018-08-12T10:56:57.517Z,20.50
2018-08-12T10:59:30.180Z,20.50
2018-08-12T11:02:02.545Z,20.40
2018-08-12T11:04:34.970Z,20.40
2018-08-12T11:07:07.573Z,20.40
2018-08-12T11:09:39.734Z,20.50
2018-08-12T11:12:12.435Z,20.50
2018-08-12T11:14:44.830Z,20.50
2018-08-12T11:17:17.112Z,20.50
2018-08-12T11:19:49.339Z,20.50
2018-08-12T11:22:21.407Z,20.30
2018-08-12T11:24:53.374Z,20.30
2018-08-12T11:27:25.240Z,20.20
2018-08-12T11:29:57.178Z,20.20
2018-08-12T11:32:29.899Z,20.30
2018-08-12T11:35:02.188Z,20.10
2018-08-12T11:37:34.375Z,20.10
2018-08-12T11:40:07.146Z,19.80
2018-08-12T11:42:39.371Z,19.30
2018-08-12T11:45:17.144Z,19.20
2018-08-12T11:47:50.268Z,19.20
2018-08-12T11:50:22.576Z,19.20
2018-08-12T11:52:55.038Z,19.20
2018-08-12T11:55:27.467Z,19.20
2018-08-12T11:57:59.892Z,19.40
2018-08-12T12:00:32.646Z,19.30
2018-08-12T12:03:05.031Z,19.40
2018-08-12T12:05:37.232Z,19.50
2018-08-12T12:08:09.813Z,19.60
2018-08-12T12:10:41.873Z,19.70
2018-08-12T12:13:14.309Z,19.70
2018-08-12T12:15:46.517Z,19.70
2018-08-12T12:18:19.091Z,19.70
2018-08-12T12:20:51.062Z,19.60
2018-08-12T12:23:23.332Z,19.50
2018-08-12T12:25:55.469Z,19.60
2018-08-12T12:28:27.721Z,19.60
2018-08-12T12:30:59.871Z,19.70
2018-08-12T12:33:34.336Z,19.70
2018-08-12T12:36:06.709Z,19.80
2018-08-12T12:38:38.864Z,19.70
2018-08-12T12:41:11.169Z,19.80
2018-08-12T12:43:43.565Z,20.10
2018-08-12T12:46:15.935Z,20.20
2018-08-12T12:48:48.382Z,20.30
2018-08-12T12:51:20.495Z,20.30
2018-08-12T12:53:52.785Z,20.40
2018-08-12T12:56:25.680Z,20.60
2018-08-12T12:58:57.964Z,21.00
2018-08-12T13:01:30.785Z,21.10
2018-08-12T13:04:03.249Z,21.10
2018-08-12T13:06:35.385Z,21.20
2018-08-12T13:09:10.379Z,21.60
2018-08-12T13:11:42.707Z,22.10
2018-08-12T13:14:15.451Z,22.40
2018-08-12T13:16:47.312Z,22.40
2018-08-12T13:19:19.614Z,22.20
2018-08-12T13:21:51.677Z,22.20
2018-08-12T13:24:23.955Z,22.20
2018-08-12T13:26:56.044Z,22.20
2018-08-12T13:29:28.429Z,22.10
2018-08-12T13:32:00.416Z,22.10
2018-08-12T13:34:32.521Z,22.00
2018-08-12T13:37:04.566Z,21.70
2018-08-12T13:39:36.774Z,21.50
2018-08-12T13:42:08.913Z,21.30
2018-08-12T13:44:41.151Z,21.20
2018-08-12T13:47:13.351Z,21.30
2018-08-12T13:49:45.622Z,21.30
2018-08-12T13:52:17.965Z,21.30
2018-08-12T13:54:50.407Z,21.30
2018-08-12T13:57:22.652Z,21.30
2018-08-12T13:59:55.084Z,21.50
2018-08-12T14:02:27.352Z,21.60
2018-08-12T14:04:59.326Z,21.70
2018-08-12T14:07:31.482Z,21.80
2018-08-12T14:10:03.626Z,21.70
2018-08-12T14:12:35.895Z,21.90
2018-08-12T14:15:10.363Z,21.90
2018-08-12T14:17:43.939Z,22.00
2018-08-12T14:20:18.089Z,21.90
2018-08-12T14:22:50.528Z,21.80
2018-08-12T14:25:23.018Z,21.90
2018-08-12T14:27:55.070Z,22.20
2018-08-12T14:30:27.247Z,22.10
2018-08-12T14:32:59.084Z,22.30
2018-08-12T14:35:31.517Z,22.60
2018-08-12T14:38:03.496Z,22.80
2018-08-12T14:40:35.744Z,23.00
2018-08-12T14:43:08.016Z,23.40
2018-08-12T14:45:40.576Z,23.60
2018-08-12T14:48:12.648Z,24.00
2018-08-12T14:50:45.407Z,24.30
2018-08-12T14:53:17.666Z,24.40
2018-08-12T14:55:50.013Z,24.70
2018-08-12T14:58:22.182Z,25.20
2018-08-12T15:00:54.480Z,25.30
2018-08-12T15:03:26.917Z,25.80
2018-08-12T15:05:59.077Z,26.20
2018-08-12T15:08:31.386Z,26.30
2018-08-12T15:11:03.610Z,26.00
2018-08-12T15:13:35.660Z,26.00
2018-08-12T15:16:08.231Z,26.00
2018-08-12T15:18:40.490Z,25.40
2018-08-12T15:21:12.813Z,25.50
2018-08-12T15:23:44.915Z,25.60
2018-08-12T15:26:17.193Z,25.80
2018-08-12T15:28:49.361Z,25.90
2018-08-12T15:31:22.463Z,25.90
2018-08-12T15:33:54.552Z,26.20
2018-08-12T15:36:27.069Z,26.40
2018-08-12T15:38:59.297Z,26.50
2018-08-12T15:41:31.440Z,26.50
2018-08-12T15:44:03.736Z,26.80
2018-08-12T15:46:36.149Z,27.20
2018-08-12T15:49:08.759Z,26.90
2018-08-12T15:51:41.682Z,27.30
2018-08-12T15:54:13.960Z,27.10
2018-08-12T15:56:46.654Z,27.60
2018-08-12T15:59:18.837Z,28.10
2018-08-12T16:01:51.271Z,28.40
2018-08-12T16:04:23.432Z,28.10
2018-08-12T16:06:55.612Z,28.30
2018-08-12T16:09:27.585Z,28.60
2018-08-12T16:12:00.078Z,28.10
2018-08-12T16:14:32.028Z,27.70
2018-08-12T16:17:04.470Z,28.20
2018-08-12T16:19:36.831Z,28.30
2018-08-12T16:22:09.119Z,28.20
2018-08-12T16:24:41.416Z,28.30
2018-08-12T16:27:13.531Z,28.00
2018-08-12T16:29:45.802Z,28.60
2018-08-12T16:32:18.099Z,27.40
2018-08-12T16:34:50.343Z,27.50
2018-08-12T16:37:22.843Z,27.00
2018-08-12T16:39:55.174Z,27.70
2018-08-12T16:42:27.265Z,28.50
2018-08-12T16:44:59.559Z,28.30
2018-08-12T16:47:31.744Z,28.70
2018-08-12T16:50:03.819Z,28.70
2018-08-12T16:52:36.362Z,29.20
2018-08-12T16:55:10.500Z,29.70
2018-08-12T16:57:43.213Z,29.80
2018-08-12T17:00:19.657Z,30.30
2018-08-12T17:02:52.288Z,30.20
2018-08-12T17:05:25.477Z,30.20
2018-08-12T17:07:58.000Z,30.30
2018-08-12T17:10:30.293Z,30.00
2018-08-12T17:13:02.577Z,29.70
2018-08-12T17:15:34.728Z,29.80
2018-08-12T17:18:07.935Z,30.30
2018-08-12T17:20:40.261Z,30.50
2018-08-12T17:23:12.384Z,30.00
2018-08-12T17:25:44.660Z,30.40
2018-08-12T17:28:16.694Z,29.60
2018-08-12T17:30:48.819Z,29.20
2018-08-12T17:33:21.179Z,29.70
2018-08-12T17:35:53.360Z,29.50
2018-08-12T17:38:26.221Z,29.10
2018-08-12T17:40:58.451Z,28.80
2018-08-12T17:43:30.693Z,28.40
2018-08-12T17:46:02.727Z,29.30
2018-08-12T17:48:35.341Z,29.40
2018-08-12T17:51:07.498Z,29.10
2018-08-12T17:53:40.015Z,29.20
2018-08-12T17:56:12.393Z,29.50
2018-08-12T17:58:45.014Z,29.60
2018-08-12T18:01:16.957Z,30.60
2018-08-12T18:03:49.107Z,30.90
2018-08-12T18:06:21.682Z,30.90
2018-08-12T18:08:53.896Z,30.30
2018-08-12T18:11:26.149Z,30.60
2018-08-12T18:13:58.287Z,30.60
2018-08-12T18:16:30.576Z,30.80
2018-08-12T18:19:03.053Z,31.60
2018-08-12T18:21:35.306Z,31.80
2018-08-12T18:24:07.571Z,32.20
2018-08-12T18:26:39.894Z,32.30
2018-08-12T18:29:12.327Z,32.50
2018-08-12T18:31:44.431Z,31.90
2018-08-12T18:34:16.591Z,32.10
2018-08-12T18:36:48.600Z,32.60
2018-08-12T18:39:21.083Z,33.10
2018-08-12T18:41:53.683Z,33.90
2018-08-12T18:44:26.415Z,33.90
2018-08-12T18:46:58.951Z,33.70
2018-08-12T18:49:31.309Z,33.80
2018-08-12T18:52:03.186Z,34.20
2018-08-12T18:54:35.772Z,33.90
2018-08-12T18:57:08.113Z,33.50
2018-08-12T18:59:40.623Z,32.50
2018-08-12T19:02:12.919Z,31.20
2018-08-12T19:04:45.351Z,31.30
2018-08-12T19:07:17.350Z,31.70
2018-08-12T19:09:49.460Z,32.20
2018-08-12T19:12:21.725Z,32.40
2018-08-12T19:14:54.229Z,32.00
2018-08-12T19:17:26.099Z,32.20
2018-08-12T19:19:58.719Z,32.70
2018-08-12T19:22:30.998Z,32.80
2018-08-12T19:25:03.508Z,33.30
2018-08-12T19:27:35.862Z,33.20
2018-08-12T19:30:10.836Z,32.80
2018-08-12T19:32:42.981Z,32.90
2018-08-12T19:35:15.296Z,32.40
2018-08-12T19:37:47.225Z,31.90
2018-08-12T19:40:19.522Z,32.10
2018-08-12T19:42:51.414Z,32.60
2018-08-12T19:45:23.788Z,32.30
2018-08-12T19:47:56.014Z,31.80
2018-08-12T19:50:28.311Z,32.00
2018-08-12T19:53:00.350Z,32.50
2018-08-12T19:55:33.882Z,32.60
2018-08-12T19:58:05.973Z,32.60
2018-08-12T20:00:38.061Z,32.10
2018-08-12T20:03:10.244Z,32.80
2018-08-12T20:05:42.333Z,33.00
2018-08-12T20:08:14.480Z,33.30
2018-08-12T20:10:46.640Z,33.30
2018-08-12T20:13:18.761Z,33.30
2018-08-12T20:15:50.817Z,33.40
2018-08-12T20:18:23.031Z,33.20
2018-08-12T20:20:55.211Z,32.90
2018-08-12T20:23:27.290Z,33.60
2018-08-12T20:25:59.848Z,33.60
2018-08-12T20:28:32.163Z,33.70
2018-08-12T20:31:04.489Z,32.50
2018-08-12T20:33:36.486Z,32.20
2018-08-12T20:36:08.520Z,32.00
2018-08-12T20:38:40.673Z,31.70
2018-08-12T20:41:13.287Z,31.00
2018-08-12T20:43:45.774Z,31.40
2018-08-12T20:46:18.198Z,31.50
2018-08-12T20:48:50.542Z,31.90
2018-08-12T20:51:22.499Z,32.20
2018-08-12T20:53:54.946Z,31.80
2018-08-12T20:56:27.334Z,31.70
2018-08-12T20:58:59.525Z,31.40
2018-08-12T21:01:31.674Z,31.70
2018-08-12T21:04:02.462Z,31.00
2018-08-12T21:06:34.788Z,31.10
2018-08-12T21:09:06.283Z,31.70
2018-08-12T21:11:38.576Z,30.90
2018-08-12T21:14:11.188Z,30.70
2018-08-12T21:16:43.345Z,30.70
2018-08-12T21:19:15.660Z,30.70
2018-08-12T21:21:47.865Z,31.60
2018-08-12T21:24:19.956Z,31.70
2018-08-12T21:26:52.290Z,31.60
2018-08-12T21:29:24.781Z,32.10
2018-08-12T21:31:56.900Z,32.10
2018-08-12T21:34:29.462Z,32.50
2018-08-12T21:37:01.454Z,32.80
2018-08-12T21:39:33.690Z,31.90
2018-08-12T21:42:06.028Z,31.60
2018-08-12T21:44:38.163Z,31.80
2018-08-12T21:47:10.580Z,31.90
2018-08-12T21:49:42.738Z,32.00
2018-08-12T21:52:14.697Z,32.10
2018-08-12T21:54:47.087Z,31.30
2018-08-12T21:57:19.388Z,31.00
2018-08-12T21:59:51.688Z,30.50
2018-08-12T22:02:24.363Z,29.60
2018-08-12T22:04:56.509Z,28.90
2018-08-12T22:07:28.575Z,28.70
2018-08-12T22:10:00.872Z,29.50
2018-08-12T22:12:32.939Z,29.10
2018-08-12T22:15:05.460Z,29.00
2018-08-12T22:17:37.876Z,28.80
2018-08-12T22:20:10.380Z,28.80
2018-08-12T22:22:41.060Z,28.80
2018-08-12T22:25:14.404Z,28.80
2018-08-12T22:27:46.700Z,29.20
2018-08-12T22:30:18.899Z,29.40
2018-08-12T22:32:49.476Z,29.30
2018-08-12T22:35:19.992Z,28.80
2018-08-12T22:37:52.126Z,28.10
2018-08-12T22:40:24.365Z,28.30
2018-08-12T22:42:54.879Z,28.10
2018-08-12T22:45:25.466Z,28.20
2018-08-12T22:47:56.581Z,28.50
2018-08-12T22:50:28.738Z,28.70
2018-08-12T22:52:59.439Z,28.90
2018-08-12T22:55:30.047Z,28.50
2018-08-12T22:58:01.194Z,28.30
2018-08-12T23:00:31.714Z,28.30
2018-08-12T23:03:02.326Z,27.90
2018-08-12T23:05:32.974Z,27.50
2018-08-12T23:08:08.599Z,27.80
2018-08-12T23:10:39.452Z,27.80
2018-08-12T23:13:10.360Z,27.60
2018-08-12T23:16:13.309Z,27.70
2018-08-12T23:18:43.855Z,27.50
2018-08-12T23:21:15.399Z,27.20
2018-08-12T23:23:48.982Z,27.10
2018-08-12T23:26:20.685Z,26.60
2018-08-12T23:28:51.135Z,26.50
2018-08-12T23:31:24.415Z,26.60
2018-08-12T23:33:55.026Z,26.70
2018-08-12T23:36:25.423Z,26.60
2018-08-12T23:38:55.934Z,26.30
2018-08-12T23:41:26.372Z,26.10
2018-08-12T23:43:56.993Z,26.60
2018-08-12T23:46:27.411Z,26.70
2018-08-12T23:48:57.745Z,26.70
2018-08-12T23:51:28.215Z,26.60
2018-08-12T23:53:58.534Z,26.40
2018-08-12T23:56:28.897Z,26.30
2018-08-12T23:59:02.020Z,26.20
